sensor_id;sensor_type;location;lat;lon;timestamp;P1;durP1;ratioP1;P2;durP2;ratioP2
29430;SDS011;16404;49.902;10.074;2023-05-10T00:02:15;8.10;;;4.60;;
29430;SDS011;16404;49.902;10.074;2023-05-10T00:04:59;5.05;;;3.70;;
29430;SDS011;16404;49.902;10.074;2023-05-10T00:07:44;5.40;;;4.10;;
29430;SDS011;16404;49.902;10.074;2023-05-10T00:10:28;4.95;;;3.80;;
29430;SDS011;16404;49.902;10.074;2023-05-10T00:13:13;4.70;;;3.35;;
29430;SDS011;16404;49.902;10.074;2023-05-10T00:15:58;5.93;;;3.92;;
29430;SDS011;16404;49.902;10.074;2023-05-10T00:18:42;4.28;;;3.53;;
29430;SDS011;16404;49.902;10.074;2023-05-10T00:21:27;4.32;;;3.25;;
29430;SDS011;16404;49.902;10.074;2023-05-10T00:24:12;3.58;;;3.25;;
29430;SDS011;16404;49.902;10.074;2023-05-10T00:26:57;5.00;;;3.53;;
29430;SDS011;16404;49.902;10.074;2023-05-10T00:29:41;3.47;;;3.10;;
29430;SDS011;16404;49.902;10.074;2023-05-10T00:32:26;4.32;;;3.60;;
29430;SDS011;16404;49.902;10.074;2023-05-10T00:35:10;4.50;;;3.53;;
29430;SDS011;16404;49.902;10.074;2023-05-10T00:37:55;3.53;;;3.17;;
29430;SDS011;16404;49.902;10.074;2023-05-10T00:40:40;7.45;;;3.50;;
29430;SDS011;16404;49.902;10.074;2023-05-10T00:43:31;5.07;;;3.30;;
29430;SDS011;16404;49.902;10.074;2023-05-10T00:46:17;3.53;;;3.22;;
29430;SDS011;16404;49.902;10.074;2023-05-10T00:49:02;6.97;;;3.20;;
29430;SDS011;16404;49.902;10.074;2023-05-10T00:51:47;10.85;;;3.33;;
29430;SDS011;16404;49.902;10.074;2023-05-10T00:54:32;3.72;;;3.15;;
29430;SDS011;16404;49.902;10.074;2023-05-10T00:57:17;3.60;;;3.25;;
29430;SDS011;16404;49.902;10.074;2023-05-10T01:00:02;5.65;;;3.40;;
29430;SDS011;16404;49.902;10.074;2023-05-10T01:02:47;3.53;;;3.03;;
29430;SDS011;16404;49.902;10.074;2023-05-10T01:05:31;3.83;;;3.00;;
29430;SDS011;16404;49.902;10.074;2023-05-10T01:08:16;3.30;;;3.00;;
29430;SDS011;16404;49.902;10.074;2023-05-10T01:11:01;4.72;;;3.28;;
29430;SDS011;16404;49.902;10.074;2023-05-10T01:13:47;3.13;;;2.80;;
29430;SDS011;16404;49.902;10.074;2023-05-10T01:16:39;3.88;;;2.92;;
29430;SDS011;16404;49.902;10.074;2023-05-10T01:19:27;3.65;;;3.35;;
29430;SDS011;16404;49.902;10.074;2023-05-10T01:25:27;3.70;;;3.10;;
29430;SDS011;16404;49.902;10.074;2023-05-10T01:38:19;5.45;;;3.88;;
29430;SDS011;16404;49.902;10.074;2023-05-10T01:47:04;6.43;;;3.63;;
29430;SDS011;16404;49.902;10.074;2023-05-10T01:49:54;5.07;;;3.83;;
29430;SDS011;16404;49.902;10.074;2023-05-10T01:52:44;3.45;;;2.55;;
29430;SDS011;16404;49.902;10.074;2023-05-10T01:55:51;3.78;;;2.72;;
29430;SDS011;16404;49.902;10.074;2023-05-10T01:58:37;2.58;;;2.38;;
29430;SDS011;16404;49.902;10.074;2023-05-10T02:01:25;3.30;;;2.15;;
29430;SDS011;16404;49.902;10.074;2023-05-10T02:04:10;2.40;;;2.20;;
29430;SDS011;16404;49.902;10.074;2023-05-10T02:06:59;3.42;;;1.70;;
29430;SDS011;16404;49.902;10.074;2023-05-10T02:09:44;1.95;;;1.73;;
29430;SDS011;16404;49.902;10.074;2023-05-10T02:12:35;1.45;;;1.35;;
29430;SDS011;16404;49.902;10.074;2023-05-10T02:15:22;1.85;;;1.33;;
29430;SDS011;16404;49.902;10.074;2023-05-10T02:18:09;1.27;;;1.17;;
29430;SDS011;16404;49.902;10.074;2023-05-10T02:20:55;1.55;;;1.10;;
29430;SDS011;16404;49.902;10.074;2023-05-10T02:23:42;0.90;;;0.90;;
29430;SDS011;16404;49.902;10.074;2023-05-10T02:26:27;1.23;;;0.90;;
29430;SDS011;16404;49.902;10.074;2023-05-10T02:29:13;1.13;;;0.80;;
29430;SDS011;16404;49.902;10.074;2023-05-10T02:31:59;0.98;;;0.73;;
29430;SDS011;16404;49.902;10.074;2023-05-10T02:37:29;0.70;;;0.68;;
29430;SDS011;16404;49.902;10.074;2023-05-10T02:40:14;0.98;;;0.52;;
29430;SDS011;16404;49.902;10.074;2023-05-10T02:43:01;0.60;;;0.60;;
29430;SDS011;16404;49.902;10.074;2023-05-10T02:45:49;0.60;;;0.60;;
29430;SDS011;16404;49.902;10.074;2023-05-10T02:48:33;2.10;;;0.60;;
29430;SDS011;16404;49.902;10.074;2023-05-10T02:51:18;0.70;;;0.70;;
29430;SDS011;16404;49.902;10.074;2023-05-10T02:54:12;1.38;;;0.70;;
29430;SDS011;16404;49.902;10.074;2023-05-10T02:57:03;0.98;;;0.80;;
29430;SDS011;16404;49.902;10.074;2023-05-10T02:59:49;0.80;;;0.75;;
29430;SDS011;16404;49.902;10.074;2023-05-10T03:02:34;1.10;;;0.93;;
29430;SDS011;16404;49.902;10.074;2023-05-10T03:05:20;1.58;;;1.13;;
29430;SDS011;16404;49.902;10.074;2023-05-10T03:08:05;0.85;;;0.85;;
29430;SDS011;16404;49.902;10.074;2023-05-10T03:14:49;0.70;;;0.70;;
29430;SDS011;16404;49.902;10.074;2023-05-10T03:18:01;0.60;;;0.60;;
29430;SDS011;16404;49.902;10.074;2023-05-10T03:20:44;0.63;;;0.63;;
29430;SDS011;16404;49.902;10.074;2023-05-10T03:26:26;1.63;;;0.63;;
29430;SDS011;16404;49.902;10.074;2023-05-10T03:29:19;1.45;;;0.77;;
29430;SDS011;16404;49.902;10.074;2023-05-10T03:32:05;1.52;;;0.75;;
29430;SDS011;16404;49.902;10.074;2023-05-10T03:34:50;0.70;;;0.70;;
29430;SDS011;16404;49.902;10.074;2023-05-10T03:37:34;1.88;;;0.60;;
29430;SDS011;16404;49.902;10.074;2023-05-10T03:40:19;0.68;;;0.68;;
29430;SDS011;16404;49.902;10.074;2023-05-10T03:43:04;3.53;;;1.58;;
29430;SDS011;16404;49.902;10.074;2023-05-10T03:45:49;0.63;;;0.63;;
29430;SDS011;16404;49.902;10.074;2023-05-10T03:48:33;0.60;;;0.60;;
29430;SDS011;16404;49.902;10.074;2023-05-10T03:51:18;2.60;;;0.73;;
29430;SDS011;16404;49.902;10.074;2023-05-10T03:54:03;3.05;;;0.65;;
29430;SDS011;16404;49.902;10.074;2023-05-10T03:56:48;0.65;;;0.63;;
29430;SDS011;16404;49.902;10.074;2023-05-10T03:59:33;1.95;;;0.70;;
29430;SDS011;16404;49.902;10.074;2023-05-10T04:02:18;0.93;;;0.93;;
29430;SDS011;16404;49.902;10.074;2023-05-10T04:05:02;0.80;;;0.80;;
29430;SDS011;16404;49.902;10.074;2023-05-10T04:07:47;1.10;;;1.00;;
29430;SDS011;16404;49.902;10.074;2023-05-10T04:10:33;4.60;;;1.00;;
29430;SDS011;16404;49.902;10.074;2023-05-10T04:13:18;2.03;;;1.10;;
29430;SDS011;16404;49.902;10.074;2023-05-10T04:16:02;1.25;;;1.00;;
29430;SDS011;16404;49.902;10.074;2023-05-10T04:18:47;1.00;;;1.00;;
29430;SDS011;16404;49.902;10.074;2023-05-10T04:21:32;2.90;;;1.05;;
29430;SDS011;16404;49.902;10.074;2023-05-10T04:24:16;1.40;;;1.20;;
29430;SDS011;16404;49.902;10.074;2023-05-10T04:27:01;1.38;;;1.27;;
29430;SDS011;16404;49.902;10.074;2023-05-10T04:29:45;1.30;;;1.25;;
29430;SDS011;16404;49.902;10.074;2023-05-10T04:32:30;1.30;;;1.23;;
29430;SDS011;16404;49.902;10.074;2023-05-10T04:35:15;1.30;;;1.20;;
29430;SDS011;16404;49.902;10.074;2023-05-10T04:38:00;2.97;;;1.35;;
29430;SDS011;16404;49.902;10.074;2023-05-10T04:40:44;1.70;;;1.13;;
29430;SDS011;16404;49.902;10.074;2023-05-10T04:43:29;5.07;;;1.40;;
29430;SDS011;16404;49.902;10.074;2023-05-10T04:46:13;2.00;;;1.20;;
29430;SDS011;16404;49.902;10.074;2023-05-10T04:48:58;1.52;;;1.10;;
29430;SDS011;16404;49.902;10.074;2023-05-10T04:51:42;1.95;;;1.05;;
29430;SDS011;16404;49.902;10.074;2023-05-10T04:54:27;1.58;;;1.25;;
29430;SDS011;16404;49.902;10.074;2023-05-10T04:57:12;1.60;;;1.33;;
29430;SDS011;16404;49.902;10.074;2023-05-10T04:59:56;1.35;;;1.25;;
29430;SDS011;16404;49.902;10.074;2023-05-10T05:02:44;2.53;;;1.67;;
29430;SDS011;16404;49.902;10.074;2023-05-10T05:05:29;1.40;;;1.30;;
29430;SDS011;16404;49.902;10.074;2023-05-10T05:08:14;3.70;;;1.50;;
29430;SDS011;16404;49.902;10.074;2023-05-10T05:10:58;3.08;;;1.50;;
29430;SDS011;16404;49.902;10.074;2023-05-10T05:13:43;3.17;;;1.90;;
29430;SDS011;16404;49.902;10.074;2023-05-10T05:16:29;1.88;;;1.40;;
29430;SDS011;16404;49.902;10.074;2023-05-10T05:19:15;2.20;;;1.55;;
29430;SDS011;16404;49.902;10.074;2023-05-10T05:21:59;2.00;;;1.70;;
29430;SDS011;16404;49.902;10.074;2023-05-10T05:24:44;2.23;;;1.53;;
29430;SDS011;16404;49.902;10.074;2023-05-10T05:27:28;2.08;;;1.50;;
29430;SDS011;16404;49.902;10.074;2023-05-10T05:30:13;1.60;;;1.50;;
29430;SDS011;16404;49.902;10.074;2023-05-10T05:32:58;1.67;;;1.58;;
29430;SDS011;16404;49.902;10.074;2023-05-10T05:35:42;4.45;;;1.58;;
29430;SDS011;16404;49.902;10.074;2023-05-10T05:38:31;2.85;;;1.63;;
29430;SDS011;16404;49.902;10.074;2023-05-10T05:41:15;1.55;;;1.45;;
29430;SDS011;16404;49.902;10.074;2023-05-10T05:44:00;1.20;;;1.10;;
29430;SDS011;16404;49.902;10.074;2023-05-10T05:46:45;2.80;;;1.10;;
29430;SDS011;16404;49.902;10.074;2023-05-10T05:49:29;2.83;;;1.30;;
29430;SDS011;16404;49.902;10.074;2023-05-10T05:52:14;2.38;;;1.30;;
29430;SDS011;16404;49.902;10.074;2023-05-10T05:54:58;1.50;;;1.30;;
29430;SDS011;16404;49.902;10.074;2023-05-10T05:57:44;2.33;;;1.70;;
29430;SDS011;16404;49.902;10.074;2023-05-10T06:00:28;2.55;;;1.50;;
29430;SDS011;16404;49.902;10.074;2023-05-10T06:03:13;1.50;;;1.40;;
29430;SDS011;16404;49.902;10.074;2023-05-10T06:05:57;3.08;;;1.30;;
29430;SDS011;16404;49.902;10.074;2023-05-10T06:08:42;1.35;;;1.05;;
29430;SDS011;16404;49.902;10.074;2023-05-10T06:11:27;1.15;;;1.10;;
29430;SDS011;16404;49.902;10.074;2023-05-10T06:14:11;2.57;;;1.27;;
29430;SDS011;16404;49.902;10.074;2023-05-10T06:16:56;1.17;;;1.08;;
29430;SDS011;16404;49.902;10.074;2023-05-10T06:19:40;1.10;;;1.05;;
29430;SDS011;16404;49.902;10.074;2023-05-10T06:22:28;1.33;;;1.02;;
29430;SDS011;16404;49.902;10.074;2023-05-10T06:25:13;4.05;;;1.50;;
29430;SDS011;16404;49.902;10.074;2023-05-10T06:27:58;2.50;;;1.38;;
29430;SDS011;16404;49.902;10.074;2023-05-10T06:30:42;1.50;;;1.40;;
29430;SDS011;16404;49.902;10.074;2023-05-10T06:33:27;1.50;;;1.30;;
29430;SDS011;16404;49.902;10.074;2023-05-10T06:36:11;1.50;;;1.40;;
29430;SDS011;16404;49.902;10.074;2023-05-10T06:38:58;3.28;;;1.58;;
29430;SDS011;16404;49.902;10.074;2023-05-10T06:41:42;4.65;;;1.60;;
29430;SDS011;16404;49.902;10.074;2023-05-10T06:44:27;2.40;;;2.20;;
29430;SDS011;16404;49.902;10.074;2023-05-10T06:47:11;1.58;;;1.48;;
29430;SDS011;16404;49.902;10.074;2023-05-10T06:49:56;1.75;;;1.48;;
29430;SDS011;16404;49.902;10.074;2023-05-10T06:52:40;1.60;;;1.50;;
29430;SDS011;16404;49.902;10.074;2023-05-10T06:55:25;4.20;;;1.65;;
29430;SDS011;16404;49.902;10.074;2023-05-10T06:58:10;5.18;;;1.80;;
29430;SDS011;16404;49.902;10.074;2023-05-10T07:01:01;2.75;;;1.60;;
29430;SDS011;16404;49.902;10.074;2023-05-10T07:03:46;2.00;;;1.77;;
29430;SDS011;16404;49.902;10.074;2023-05-10T07:06:31;1.63;;;1.50;;
29430;SDS011;16404;49.902;10.074;2023-05-10T07:09:15;4.18;;;1.70;;
29430;SDS011;16404;49.902;10.074;2023-05-10T07:12:00;1.40;;;1.30;;
29430;SDS011;16404;49.902;10.074;2023-05-10T07:17:30;1.50;;;1.40;;
29430;SDS011;16404;49.902;10.074;2023-05-10T07:20:15;2.22;;;1.60;;
29430;SDS011;16404;49.902;10.074;2023-05-10T07:22:59;2.97;;;1.70;;
29430;SDS011;16404;49.902;10.074;2023-05-10T07:25:47;5.20;;;1.77;;
29430;SDS011;16404;49.902;10.074;2023-05-10T07:28:33;5.03;;;1.60;;
29430;SDS011;16404;49.902;10.074;2023-05-10T07:31:17;1.60;;;1.50;;
29430;SDS011;16404;49.902;10.074;2023-05-10T07:34:02;1.77;;;1.40;;
29430;SDS011;16404;49.902;10.074;2023-05-10T07:36:46;4.35;;;1.40;;
29430;SDS011;16404;49.902;10.074;2023-05-10T07:39:31;1.88;;;1.50;;
29430;SDS011;16404;49.902;10.074;2023-05-10T07:42:16;1.60;;;1.50;;
29430;SDS011;16404;49.902;10.074;2023-05-10T07:45:00;3.63;;;1.60;;
29430;SDS011;16404;49.902;10.074;2023-05-10T07:47:45;2.17;;;1.55;;
29430;SDS011;16404;49.902;10.074;2023-05-10T07:50:30;1.77;;;1.58;;
29430;SDS011;16404;49.902;10.074;2023-05-10T07:53:14;1.75;;;1.48;;
29430;SDS011;16404;49.902;10.074;2023-05-10T07:55:59;2.30;;;1.70;;
29430;SDS011;16404;49.902;10.074;2023-05-10T07:59:03;3.55;;;1.58;;
29430;SDS011;16404;49.902;10.074;2023-05-10T08:01:48;3.13;;;1.50;;
29430;SDS011;16404;49.902;10.074;2023-05-10T08:04:33;3.50;;;1.40;;
29430;SDS011;16404;49.902;10.074;2023-05-10T08:07:18;2.85;;;1.70;;
29430;SDS011;16404;49.902;10.074;2023-05-10T08:10:03;3.65;;;2.03;;
29430;SDS011;16404;49.902;10.074;2023-05-10T08:15:32;5.82;;;2.25;;
29430;SDS011;16404;49.902;10.074;2023-05-10T08:18:16;5.45;;;1.67;;
29430;SDS011;16404;49.902;10.074;2023-05-10T08:21:01;4.55;;;2.05;;
29430;SDS011;16404;49.902;10.074;2023-05-10T08:23:46;3.97;;;1.98;;
29430;SDS011;16404;49.902;10.074;2023-05-10T08:26:32;3.60;;;1.95;;
29430;SDS011;16404;49.902;10.074;2023-05-10T08:29:16;3.58;;;1.60;;
29430;SDS011;16404;49.902;10.074;2023-05-10T08:32:01;5.07;;;1.63;;
29430;SDS011;16404;49.902;10.074;2023-05-10T08:34:45;3.20;;;1.88;;
29430;SDS011;16404;49.902;10.074;2023-05-10T08:37:30;3.33;;;2.08;;
29430;SDS011;16404;49.902;10.074;2023-05-10T08:40:16;3.85;;;1.52;;
29430;SDS011;16404;49.902;10.074;2023-05-10T08:43:07;3.83;;;1.60;;
29430;SDS011;16404;49.902;10.074;2023-05-10T08:45:53;4.25;;;1.58;;
29430;SDS011;16404;49.902;10.074;2023-05-10T08:48:39;5.95;;;1.40;;
29430;SDS011;16404;49.902;10.074;2023-05-10T08:51:25;5.32;;;1.60;;
29430;SDS011;16404;49.902;10.074;2023-05-10T08:54:11;2.63;;;1.40;;
29430;SDS011;16404;49.902;10.074;2023-05-10T08:59:41;2.85;;;1.30;;
29430;SDS011;16404;49.902;10.074;2023-05-10T09:02:25;3.05;;;1.33;;
29430;SDS011;16404;49.902;10.074;2023-05-10T09:07:56;4.53;;;1.50;;
29430;SDS011;16404;49.902;10.074;2023-05-10T09:10:45;5.50;;;1.42;;
29430;SDS011;16404;49.902;10.074;2023-05-10T09:13:31;6.30;;;1.75;;
29430;SDS011;16404;49.902;10.074;2023-05-10T09:19:00;3.95;;;1.63;;
29430;SDS011;16404;49.902;10.074;2023-05-10T09:21:45;4.07;;;1.60;;
29430;SDS011;16404;49.902;10.074;2023-05-10T09:24:30;5.32;;;1.42;;
29430;SDS011;16404;49.902;10.074;2023-05-10T09:27:14;4.35;;;1.58;;
29430;SDS011;16404;49.902;10.074;2023-05-10T09:29:59;4.60;;;1.30;;
29430;SDS011;16404;49.902;10.074;2023-05-10T09:32:44;5.00;;;1.25;;
29430;SDS011;16404;49.902;10.074;2023-05-10T09:35:31;4.65;;;1.42;;
29430;SDS011;16404;49.902;10.074;2023-05-10T09:38:16;7.53;;;1.50;;
29430;SDS011;16404;49.902;10.074;2023-05-10T09:41:01;3.78;;;1.55;;
29430;SDS011;16404;49.902;10.074;2023-05-10T09:43:46;3.08;;;1.50;;
29430;SDS011;16404;49.902;10.074;2023-05-10T09:46:34;0.90;;;0.90;;
29430;SDS011;16404;49.902;10.074;2023-05-10T09:49:20;2.22;;;1.20;;
29430;SDS011;16404;49.902;10.074;2023-05-10T09:52:06;3.63;;;1.40;;
29430;SDS011;16404;49.902;10.074;2023-05-10T09:54:54;3.50;;;1.20;;
29430;SDS011;16404;49.902;10.074;2023-05-10T09:57:39;1.75;;;1.20;;
29430;SDS011;16404;49.902;10.074;2023-05-10T10:00:24;3.05;;;1.27;;
29430;SDS011;16404;49.902;10.074;2023-05-10T10:03:13;1.95;;;1.38;;
29430;SDS011;16404;49.902;10.074;2023-05-10T10:06:00;2.65;;;1.45;;
29430;SDS011;16404;49.902;10.074;2023-05-10T10:08:45;2.60;;;1.40;;
29430;SDS011;16404;49.902;10.074;2023-05-10T10:11:30;3.35;;;1.05;;
29430;SDS011;16404;49.902;10.074;2023-05-10T10:14:14;2.85;;;1.50;;
29430;SDS011;16404;49.902;10.074;2023-05-10T10:17:02;2.15;;;1.40;;
29430;SDS011;16404;49.902;10.074;2023-05-10T10:19:46;4.85;;;1.15;;
29430;SDS011;16404;49.902;10.074;2023-05-10T10:22:33;1.23;;;1.13;;
29430;SDS011;16404;49.902;10.074;2023-05-10T10:28:09;5.53;;;1.63;;
29430;SDS011;16404;49.902;10.074;2023-05-10T10:31:00;2.17;;;1.17;;
29430;SDS011;16404;49.902;10.074;2023-05-10T10:34:00;2.47;;;1.30;;
29430;SDS011;16404;49.902;10.074;2023-05-10T10:36:48;2.03;;;1.45;;
29430;SDS011;16404;49.902;10.074;2023-05-10T10:45:31;3.15;;;1.30;;
29430;SDS011;16404;49.902;10.074;2023-05-10T10:48:19;1.83;;;1.23;;
29430;SDS011;16404;49.902;10.074;2023-05-10T10:51:05;2.33;;;1.10;;
29430;SDS011;16404;49.902;10.074;2023-05-10T10:53:50;0.80;;;0.80;;
29430;SDS011;16404;49.902;10.074;2023-05-10T10:56:34;1.58;;;1.17;;
29430;SDS011;16404;49.902;10.074;2023-05-10T10:59:26;2.80;;;1.33;;
29430;SDS011;16404;49.902;10.074;2023-05-10T11:08:17;1.50;;;1.10;;
29430;SDS011;16404;49.902;10.074;2023-05-10T11:11:16;2.92;;;1.00;;
29430;SDS011;16404;49.902;10.074;2023-05-10T11:14:05;2.78;;;1.20;;
29430;SDS011;16404;49.902;10.074;2023-05-10T11:16:50;1.52;;;1.10;;
29430;SDS011;16404;49.902;10.074;2023-05-10T11:19:35;3.13;;;1.25;;
29430;SDS011;16404;49.902;10.074;2023-05-10T11:22:22;1.33;;;1.15;;
29430;SDS011;16404;49.902;10.074;2023-05-10T11:25:09;0.82;;;0.82;;
29430;SDS011;16404;49.902;10.074;2023-05-10T11:27:54;0.98;;;0.88;;
29430;SDS011;16404;49.902;10.074;2023-05-10T11:30:39;1.13;;;0.63;;
29430;SDS011;16404;49.902;10.074;2023-05-10T11:33:24;2.88;;;0.80;;
29430;SDS011;16404;49.902;10.074;2023-05-10T11:36:13;1.90;;;0.77;;
29430;SDS011;16404;49.902;10.074;2023-05-10T11:38:58;1.33;;;1.10;;
29430;SDS011;16404;49.902;10.074;2023-05-10T11:41:43;1.35;;;1.10;;
29430;SDS011;16404;49.902;10.074;2023-05-10T11:44:31;3.08;;;1.10;;
29430;SDS011;16404;49.902;10.074;2023-05-10T11:47:16;2.50;;;1.20;;
29430;SDS011;16404;49.902;10.074;2023-05-10T11:50:01;2.80;;;1.25;;
29430;SDS011;16404;49.902;10.074;2023-05-10T11:52:50;1.45;;;1.08;;
29430;SDS011;16404;49.902;10.074;2023-05-10T11:55:35;3.38;;;1.23;;
29430;SDS011;16404;49.902;10.074;2023-05-10T11:58:20;2.90;;;1.27;;
29430;SDS011;16404;49.902;10.074;2023-05-10T12:03:50;3.00;;;1.30;;
29430;SDS011;16404;49.902;10.074;2023-05-10T12:06:39;2.88;;;1.30;;
29430;SDS011;16404;49.902;10.074;2023-05-10T12:09:24;2.58;;;1.10;;
29430;SDS011;16404;49.902;10.074;2023-05-10T12:12:09;2.33;;;1.17;;
29430;SDS011;16404;49.902;10.074;2023-05-10T12:17:39;0.98;;;0.90;;
29430;SDS011;16404;49.902;10.074;2023-05-10T12:20:27;0.90;;;0.73;;
29430;SDS011;16404;49.902;10.074;2023-05-10T12:26:01;1.10;;;0.90;;
29430;SDS011;16404;49.902;10.074;2023-05-10T12:28:47;1.40;;;0.90;;
29430;SDS011;16404;49.902;10.074;2023-05-10T12:31:32;2.45;;;1.08;;
29430;SDS011;16404;49.902;10.074;2023-05-10T12:34:26;1.13;;;1.02;;
29430;SDS011;16404;49.902;10.074;2023-05-10T12:37:15;3.70;;;1.15;;
29430;SDS011;16404;49.902;10.074;2023-05-10T12:40:00;3.08;;;2.17;;
29430;SDS011;16404;49.902;10.074;2023-05-10T12:42:44;1.33;;;1.10;;
29430;SDS011;16404;49.902;10.074;2023-05-10T12:45:29;2.88;;;0.98;;
29430;SDS011;16404;49.902;10.074;2023-05-10T12:48:13;2.05;;;1.00;;
29430;SDS011;16404;49.902;10.074;2023-05-10T12:50:58;1.15;;;0.93;;
29430;SDS011;16404;49.902;10.074;2023-05-10T12:53:44;3.58;;;1.20;;
29430;SDS011;16404;49.902;10.074;2023-05-10T12:56:29;1.85;;;1.13;;
29430;SDS011;16404;49.902;10.074;2023-05-10T12:59:14;1.27;;;0.82;;
29430;SDS011;16404;49.902;10.074;2023-05-10T13:01:58;2.92;;;1.00;;
29430;SDS011;16404;49.902;10.074;2023-05-10T13:04:46;6.13;;;1.02;;
29430;SDS011;16404;49.902;10.074;2023-05-10T13:07:31;2.25;;;1.00;;
29430;SDS011;16404;49.902;10.074;2023-05-10T13:10:16;2.47;;;1.00;;
29430;SDS011;16404;49.902;10.074;2023-05-10T13:13:01;1.15;;;0.77;;
29430;SDS011;16404;49.902;10.074;2023-05-10T13:18:30;1.67;;;0.40;;
29430;SDS011;16404;49.902;10.074;2023-05-10T13:21:15;0.80;;;0.43;;
29430;SDS011;16404;49.902;10.074;2023-05-10T13:26:44;1.75;;;0.43;;
29430;SDS011;16404;49.902;10.074;2023-05-10T13:29:29;0.47;;;0.40;;
29430;SDS011;16404;49.902;10.074;2023-05-10T13:32:14;0.52;;;0.52;;
29430;SDS011;16404;49.902;10.074;2023-05-10T13:34:58;1.10;;;0.60;;
29430;SDS011;16404;49.902;10.074;2023-05-10T13:37:43;0.50;;;0.38;;
29430;SDS011;16404;49.902;10.074;2023-05-10T13:40:27;0.80;;;0.65;;
29430;SDS011;16404;49.902;10.074;2023-05-10T13:43:12;1.05;;;0.70;;
29430;SDS011;16404;49.902;10.074;2023-05-10T13:45:57;1.40;;;0.82;;
29430;SDS011;16404;49.902;10.074;2023-05-10T13:48:41;2.10;;;0.80;;
29430;SDS011;16404;49.902;10.074;2023-05-10T13:51:26;1.02;;;0.85;;
29430;SDS011;16404;49.902;10.074;2023-05-10T13:54:11;1.75;;;0.80;;
29430;SDS011;16404;49.902;10.074;2023-05-10T13:56:55;0.80;;;0.80;;
29430;SDS011;16404;49.902;10.074;2023-05-10T13:59:40;1.30;;;1.00;;
29430;SDS011;16404;49.902;10.074;2023-05-10T14:02:25;4.50;;;2.80;;
29430;SDS011;16404;49.902;10.074;2023-05-10T14:05:11;2.08;;;1.52;;
29430;SDS011;16404;49.902;10.074;2023-05-10T14:07:55;1.85;;;1.60;;
29430;SDS011;16404;49.902;10.074;2023-05-10T14:10:40;2.20;;;0.98;;
29430;SDS011;16404;49.902;10.074;2023-05-10T14:13:24;4.70;;;1.05;;
29430;SDS011;16404;49.902;10.074;2023-05-10T14:16:09;4.00;;;1.13;;
29430;SDS011;16404;49.902;10.074;2023-05-10T14:18:53;6.25;;;1.15;;
29430;SDS011;16404;49.902;10.074;2023-05-10T14:21:38;0.80;;;0.80;;
29430;SDS011;16404;49.902;10.074;2023-05-10T14:24:23;2.55;;;1.10;;
29430;SDS011;16404;49.902;10.074;2023-05-10T14:27:07;1.38;;;1.05;;
29430;SDS011;16404;49.902;10.074;2023-05-10T14:29:52;3.83;;;1.00;;
29430;SDS011;16404;49.902;10.074;2023-05-10T14:32:37;3.08;;;0.85;;
29430;SDS011;16404;49.902;10.074;2023-05-10T14:35:22;2.55;;;1.10;;
29430;SDS011;16404;49.902;10.074;2023-05-10T14:38:06;3.65;;;1.20;;
29430;SDS011;16404;49.902;10.074;2023-05-10T14:40:51;1.70;;;1.00;;
29430;SDS011;16404;49.902;10.074;2023-05-10T14:43:35;7.15;;;0.90;;
29430;SDS011;16404;49.902;10.074;2023-05-10T14:46:20;3.70;;;1.02;;
29430;SDS011;16404;49.902;10.074;2023-05-10T14:49:05;11.23;;;1.00;;
29430;SDS011;16404;49.902;10.074;2023-05-10T14:51:49;3.63;;;0.85;;
29430;SDS011;16404;49.902;10.074;2023-05-10T14:54:34;1.85;;;0.90;;
29430;SDS011;16404;49.902;10.074;2023-05-10T14:57:19;6.50;;;0.82;;
29430;SDS011;16404;49.902;10.074;2023-05-10T15:00:04;1.38;;;0.93;;
29430;SDS011;16404;49.902;10.074;2023-05-10T15:02:48;1.95;;;0.93;;
29430;SDS011;16404;49.902;10.074;2023-05-10T15:05:33;4.70;;;1.27;;
29430;SDS011;16404;49.902;10.074;2023-05-10T15:08:17;4.00;;;1.00;;
29430;SDS011;16404;49.902;10.074;2023-05-10T15:11:02;1.05;;;0.90;;
29430;SDS011;16404;49.902;10.074;2023-05-10T15:13:47;3.13;;;1.10;;
29430;SDS011;16404;49.902;10.074;2023-05-10T15:16:31;2.47;;;1.13;;
29430;SDS011;16404;49.902;10.074;2023-05-10T15:19:16;4.38;;;1.27;;
29430;SDS011;16404;49.902;10.074;2023-05-10T15:22:01;2.10;;;1.05;;
29430;SDS011;16404;49.902;10.074;2023-05-10T15:27:30;1.90;;;1.48;;
29430;SDS011;16404;49.902;10.074;2023-05-10T15:30:15;1.42;;;1.33;;
29430;SDS011;16404;49.902;10.074;2023-05-10T15:32:59;3.97;;;1.60;;
29430;SDS011;16404;49.902;10.074;2023-05-10T15:35:44;1.80;;;1.38;;
29430;SDS011;16404;49.902;10.074;2023-05-10T15:38:28;3.28;;;1.50;;
29430;SDS011;16404;49.902;10.074;2023-05-10T15:41:13;5.28;;;1.50;;
29430;SDS011;16404;49.902;10.074;2023-05-10T15:43:58;3.45;;;1.52;;
29430;SDS011;16404;49.902;10.074;2023-05-10T15:46:43;2.58;;;1.40;;
29430;SDS011;16404;49.902;10.074;2023-05-10T15:52:13;1.45;;;1.20;;
29430;SDS011;16404;49.902;10.074;2023-05-10T15:54:57;2.00;;;1.40;;
29430;SDS011;16404;49.902;10.074;2023-05-10T15:57:42;1.70;;;1.27;;
29430;SDS011;16404;49.902;10.074;2023-05-10T16:03:12;3.33;;;1.27;;
29430;SDS011;16404;49.902;10.074;2023-05-10T16:05:56;3.22;;;1.63;;
29430;SDS011;16404;49.902;10.074;2023-05-10T16:08:41;2.60;;;1.70;;
29430;SDS011;16404;49.902;10.074;2023-05-10T16:11:26;1.80;;;1.55;;
29430;SDS011;16404;49.902;10.074;2023-05-10T16:14:10;2.92;;;1.67;;
29430;SDS011;16404;49.902;10.074;2023-05-10T16:16:55;3.97;;;1.77;;
29430;SDS011;16404;49.902;10.074;2023-05-10T16:19:39;3.08;;;1.90;;
29430;SDS011;16404;49.902;10.074;2023-05-10T16:22:24;3.15;;;2.10;;
29430;SDS011;16404;49.902;10.074;2023-05-10T16:25:12;2.33;;;2.10;;
29430;SDS011;16404;49.902;10.074;2023-05-10T16:27:57;4.17;;;2.27;;
29430;SDS011;16404;49.902;10.074;2023-05-10T16:30:43;4.93;;;2.00;;
29430;SDS011;16404;49.902;10.074;2023-05-10T16:33:27;4.90;;;2.67;;
29430;SDS011;16404;49.902;10.074;2023-05-10T16:36:12;4.60;;;2.92;;
29430;SDS011;16404;49.902;10.074;2023-05-10T16:38:56;3.90;;;3.03;;
29430;SDS011;16404;49.902;10.074;2023-05-10T16:44:26;4.78;;;3.47;;
29430;SDS011;16404;49.902;10.074;2023-05-10T16:47:11;4.05;;;3.65;;
29430;SDS011;16404;49.902;10.074;2023-05-10T16:49:55;5.78;;;3.55;;
29430;SDS011;16404;49.902;10.074;2023-05-10T16:52:40;4.25;;;3.58;;
29430;SDS011;16404;49.902;10.074;2023-05-10T16:55:24;4.85;;;3.42;;
29430;SDS011;16404;49.902;10.074;2023-05-10T16:58:09;4.22;;;3.20;;
29430;SDS011;16404;49.902;10.074;2023-05-10T17:00:53;7.40;;;3.22;;
29430;SDS011;16404;49.902;10.074;2023-05-10T17:03:38;5.33;;;3.50;;
29430;SDS011;16404;49.902;10.074;2023-05-10T17:06:23;5.07;;;3.45;;
29430;SDS011;16404;49.902;10.074;2023-05-10T17:09:07;4.13;;;3.40;;
29430;SDS011;16404;49.902;10.074;2023-05-10T17:11:52;4.68;;;3.70;;
29430;SDS011;16404;49.902;10.074;2023-05-10T17:14:36;4.80;;;4.38;;
29430;SDS011;16404;49.902;10.074;2023-05-10T17:17:21;4.75;;;3.00;;
29430;SDS011;16404;49.902;10.074;2023-05-10T17:20:06;5.03;;;3.13;;
29430;SDS011;16404;49.902;10.074;2023-05-10T17:25:37;6.83;;;3.43;;
29430;SDS011;16404;49.902;10.074;2023-05-10T17:28:21;5.05;;;3.65;;
29430;SDS011;16404;49.902;10.074;2023-05-10T17:31:06;8.07;;;3.75;;
29430;SDS011;16404;49.902;10.074;2023-05-10T17:33:50;4.50;;;3.75;;
29430;SDS011;16404;49.902;10.074;2023-05-10T17:39:20;4.53;;;3.25;;
29430;SDS011;16404;49.902;10.074;2023-05-10T17:42:04;8.60;;;3.97;;
29430;SDS011;16404;49.902;10.074;2023-05-10T17:47:34;7.10;;;4.35;;
29430;SDS011;16404;49.902;10.074;2023-05-10T17:50:19;7.90;;;4.47;;
29430;SDS011;16404;49.902;10.074;2023-05-10T17:53:03;8.20;;;4.20;;